sensor_id;sensor_type;location;lat;lon;timestamp;P1;durP1;ratioP1;P2;durP2;ratioP2
20207;SDS011;10263;48.716;8.760;2024-03-23T00:55:16;20.93;;;7.33;;
20207;SDS011;10263;48.716;8.760;2024-03-23T00:57:43;15.97;;;6.10;;
20207;SDS011;10263;48.716;8.760;2024-03-23T01:00:10;14.17;;;5.23;;
20207;SDS011;10263;48.716;8.760;2024-03-23T01:02:37;12.20;;;5.03;;
20207;SDS011;10263;48.716;8.760;2024-03-23T01:05:04;14.37;;;5.60;;
20207;SDS011;10263;48.716;8.760;2024-03-23T01:07:30;20.43;;;6.60;;
20207;SDS011;10263;48.716;8.760;2024-03-23T01:09:58;12.23;;;5.13;;
20207;SDS011;10263;48.716;8.760;2024-03-23T01:12:28;18.77;;;6.93;;
20207;SDS011;10263;48.716;8.760;2024-03-23T01:14:55;15.20;;;5.80;;
20207;SDS011;10263;48.716;8.760;2024-03-23T01:17:21;27.00;;;9.37;;
20207;SDS011;10263;48.716;8.760;2024-03-23T01:19:48;16.00;;;6.77;;
20207;SDS011;10263;48.716;8.760;2024-03-23T01:22:14;17.47;;;7.90;;
20207;SDS011;10263;48.716;8.760;2024-03-23T01:24:41;17.80;;;6.93;;
20207;SDS011;10263;48.716;8.760;2024-03-23T01:27:08;19.17;;;7.60;;
20207;SDS011;10263;48.716;8.760;2024-03-23T01:29:36;16.03;;;6.37;;
20207;SDS011;10263;48.716;8.760;2024-03-23T01:32:04;18.40;;;6.53;;
20207;SDS011;10263;48.716;8.760;2024-03-23T01:34:32;28.87;;;9.60;;
20207;SDS011;10263;48.716;8.760;2024-03-23T01:36:58;16.53;;;6.10;;
20207;SDS011;10263;48.716;8.760;2024-03-23T01:39:25;22.93;;;7.73;;
20207;SDS011;10263;48.716;8.760;2024-03-23T01:41:53;14.83;;;6.20;;
20207;SDS011;10263;48.716;8.760;2024-03-23T01:44:20;17.57;;;6.17;;
20207;SDS011;10263;48.716;8.760;2024-03-23T01:46:48;18.43;;;6.23;;
20207;SDS011;10263;48.716;8.760;2024-03-23T01:49:15;9.47;;;4.47;;
20207;SDS011;10263;48.716;8.760;2024-03-23T01:51:41;20.73;;;7.20;;
20207;SDS011;10263;48.716;8.760;2024-03-23T01:54:09;13.63;;;5.27;;
20207;SDS011;10263;48.716;8.760;2024-03-23T01:56:35;15.93;;;5.70;;
20207;SDS011;10263;48.716;8.760;2024-03-23T01:59:03;15.30;;;5.83;;
20207;SDS011;10263;48.716;8.760;2024-03-23T02:01:29;16.77;;;6.30;;
20207;SDS011;10263;48.716;8.760;2024-03-23T02:04:00;10.17;;;3.93;;
20207;SDS011;10263;48.716;8.760;2024-03-23T02:06:26;18.60;;;6.27;;
20207;SDS011;10263;48.716;8.760;2024-03-23T02:08:54;10.57;;;4.17;;
20207;SDS011;10263;48.716;8.760;2024-03-23T02:11:20;18.67;;;6.77;;
20207;SDS011;10263;48.716;8.760;2024-03-23T02:13:47;12.43;;;4.93;;
20207;SDS011;10263;48.716;8.760;2024-03-23T02:16:13;10.27;;;4.60;;
20207;SDS011;10263;48.716;8.760;2024-03-23T02:18:40;12.97;;;4.83;;
20207;SDS011;10263;48.716;8.760;2024-03-23T02:21:08;11.10;;;4.43;;
20207;SDS011;10263;48.716;8.760;2024-03-23T02:23:36;19.87;;;7.00;;
20207;SDS011;10263;48.716;8.760;2024-03-23T02:26:03;13.33;;;5.30;;
20207;SDS011;10263;48.716;8.760;2024-03-23T02:28:29;18.97;;;6.83;;
20207;SDS011;10263;48.716;8.760;2024-03-23T02:30:56;14.30;;;6.07;;
20207;SDS011;10263;48.716;8.760;2024-03-23T02:33:23;18.20;;;6.77;;
20207;SDS011;10263;48.716;8.760;2024-03-23T02:35:50;12.20;;;4.77;;
20207;SDS011;10263;48.716;8.760;2024-03-23T02:38:17;18.63;;;6.50;;
20207;SDS011;10263;48.716;8.760;2024-03-23T02:40:45;11.97;;;4.83;;
20207;SDS011;10263;48.716;8.760;2024-03-23T02:43:12;12.67;;;5.17;;
20207;SDS011;10263;48.716;8.760;2024-03-23T02:45:38;18.00;;;6.87;;
20207;SDS011;10263;48.716;8.760;2024-03-23T02:48:05;19.43;;;6.90;;
20207;SDS011;10263;48.716;8.760;2024-03-23T02:50:32;18.60;;;6.63;;
20207;SDS011;10263;48.716;8.760;2024-03-23T02:52:59;21.90;;;7.67;;
20207;SDS011;10263;48.716;8.760;2024-03-23T02:55:26;19.63;;;6.67;;
20207;SDS011;10263;48.716;8.760;2024-03-23T02:57:55;18.73;;;6.57;;
20207;SDS011;10263;48.716;8.760;2024-03-23T03:00:22;18.57;;;6.50;;
20207;SDS011;10263;48.716;8.760;2024-03-23T03:02:50;9.50;;;4.13;;
20207;SDS011;10263;48.716;8.760;2024-03-23T03:05:16;13.23;;;4.73;;
20207;SDS011;10263;48.716;8.760;2024-03-23T03:07:43;17.40;;;6.20;;
20207;SDS011;10263;48.716;8.760;2024-03-23T03:10:09;14.40;;;5.50;;
20207;SDS011;10263;48.716;8.760;2024-03-23T03:12:37;23.13;;;6.73;;
20207;SDS011;10263;48.716;8.760;2024-03-23T03:15:05;12.03;;;4.77;;
20207;SDS011;10263;48.716;8.760;2024-03-23T03:17:33;15.40;;;5.57;;
20207;SDS011;10263;48.716;8.760;2024-03-23T03:19:59;9.50;;;3.77;;
20207;SDS011;10263;48.716;8.760;2024-03-23T03:22:29;18.10;;;6.30;;
20207;SDS011;10263;48.716;8.760;2024-03-23T03:24:56;7.70;;;3.87;;
20207;SDS011;10263;48.716;8.760;2024-03-23T03:27:23;19.13;;;6.80;;
20207;SDS011;10263;48.716;8.760;2024-03-23T03:29:49;12.97;;;4.47;;
20207;SDS011;10263;48.716;8.760;2024-03-23T03:32:18;13.17;;;4.90;;
20207;SDS011;10263;48.716;8.760;2024-03-23T03:34:44;14.27;;;4.57;;
20207;SDS011;10263;48.716;8.760;2024-03-23T03:37:12;17.07;;;6.27;;
20207;SDS011;10263;48.716;8.760;2024-03-23T03:39:39;14.13;;;4.93;;
20207;SDS011;10263;48.716;8.760;2024-03-23T03:42:06;10.97;;;4.40;;
20207;SDS011;10263;48.716;8.760;2024-03-23T03:44:32;19.13;;;7.27;;
20207;SDS011;10263;48.716;8.760;2024-03-23T03:47:01;14.97;;;6.93;;
20207;SDS011;10263;48.716;8.760;2024-03-23T03:49:29;20.93;;;7.13;;
20207;SDS011;10263;48.716;8.760;2024-03-23T03:51:56;8.23;;;3.57;;
20207;SDS011;10263;48.716;8.760;2024-03-23T03:54:22;15.80;;;5.53;;
20207;SDS011;10263;48.716;8.760;2024-03-23T03:56:50;14.20;;;4.60;;
20207;SDS011;10263;48.716;8.760;2024-03-23T03:59:17;9.43;;;3.90;;
20207;SDS011;10263;48.716;8.760;2024-03-23T04:01:44;12.40;;;4.70;;
20207;SDS011;10263;48.716;8.760;2024-03-23T04:04:10;10.00;;;4.10;;
20207;SDS011;10263;48.716;8.760;2024-03-23T04:06:40;19.10;;;6.77;;
20207;SDS011;10263;48.716;8.760;2024-03-23T04:09:06;14.70;;;5.80;;
20207;SDS011;10263;48.716;8.760;2024-03-23T04:11:33;19.97;;;6.47;;
20207;SDS011;10263;48.716;8.760;2024-03-23T04:14:00;11.50;;;4.27;;
20207;SDS011;10263;48.716;8.760;2024-03-23T04:16:27;20.13;;;7.30;;
20207;SDS011;10263;48.716;8.760;2024-03-23T04:18:54;9.97;;;3.90;;
20207;SDS011;10263;48.716;8.760;2024-03-23T04:21:21;11.97;;;4.33;;
20207;SDS011;10263;48.716;8.760;2024-03-23T04:23:50;11.50;;;5.00;;
20207;SDS011;10263;48.716;8.760;2024-03-23T04:26:16;11.17;;;4.70;;
20207;SDS011;10263;48.716;8.760;2024-03-23T04:28:43;18.23;;;6.27;;
20207;SDS011;10263;48.716;8.760;2024-03-23T04:31:09;12.67;;;5.27;;
20207;SDS011;10263;48.716;8.760;2024-03-23T04:33:36;18.23;;;6.97;;
20207;SDS011;10263;48.716;8.760;2024-03-23T04:36:03;18.07;;;6.47;;
20207;SDS011;10263;48.716;8.760;2024-03-23T04:38:32;17.33;;;7.17;;
20207;SDS011;10263;48.716;8.760;2024-03-23T04:41:00;14.80;;;6.80;;
20207;SDS011;10263;48.716;8.760;2024-03-23T04:43:28;23.37;;;9.30;;
20207;SDS011;10263;48.716;8.760;2024-03-23T04:45:55;15.40;;;7.67;;
20207;SDS011;10263;48.716;8.760;2024-03-23T04:48:22;20.37;;;8.73;;
20207;SDS011;10263;48.716;8.760;2024-03-23T04:50:54;16.53;;;8.13;;
20207;SDS011;10263;48.716;8.760;2024-03-23T04:53:22;16.27;;;8.00;;
20207;SDS011;10263;48.716;8.760;2024-03-23T04:55:54;14.37;;;7.57;;
20207;SDS011;10263;48.716;8.760;2024-03-23T04:58:23;17.90;;;7.93;;
20207;SDS011;10263;48.716;8.760;2024-03-23T05:00:52;17.10;;;8.43;;
20207;SDS011;10263;48.716;8.760;2024-03-23T05:03:20;15.30;;;8.10;;
20207;SDS011;10263;48.716;8.760;2024-03-23T05:05:47;18.30;;;8.60;;
20207;SDS011;10263;48.716;8.760;2024-03-23T05:08:14;14.40;;;8.20;;
20207;SDS011;10263;48.716;8.760;2024-03-23T05:10:42;27.07;;;10.43;;
20207;SDS011;10263;48.716;8.760;2024-03-23T05:13:08;27.40;;;11.40;;
20207;SDS011;10263;48.716;8.760;2024-03-23T05:15:36;27.17;;;12.40;;
20207;SDS011;10263;48.716;8.760;2024-03-23T05:18:02;24.70;;;10.37;;
20207;SDS011;10263;48.716;8.760;2024-03-23T05:20:30;29.73;;;12.07;;
20207;SDS011;10263;48.716;8.760;2024-03-23T05:22:56;12.73;;;6.90;;
20207;SDS011;10263;48.716;8.760;2024-03-23T05:25:23;9.30;;;5.90;;
20207;SDS011;10263;48.716;8.760;2024-03-23T05:27:49;11.00;;;5.53;;
20207;SDS011;10263;48.716;8.760;2024-03-23T05:30:16;8.67;;;5.40;;
20207;SDS011;10263;48.716;8.760;2024-03-23T05:32:43;6.83;;;5.00;;
20207;SDS011;10263;48.716;8.760;2024-03-23T05:35:10;7.97;;;5.43;;
20207;SDS011;10263;48.716;8.760;2024-03-23T05:37:37;6.60;;;5.00;;
20207;SDS011;10263;48.716;8.760;2024-03-23T05:40:04;7.43;;;4.30;;
20207;SDS011;10263;48.716;8.760;2024-03-23T05:42:30;5.33;;;3.13;;
20207;SDS011;10263;48.716;8.760;2024-03-23T05:44:57;5.83;;;2.90;;
20207;SDS011;10263;48.716;8.760;2024-03-23T05:47:23;4.60;;;2.53;;
20207;SDS011;10263;48.716;8.760;2024-03-23T05:49:52;7.00;;;2.10;;
20207;SDS011;10263;48.716;8.760;2024-03-23T05:52:18;4.13;;;2.13;;
20207;SDS011;10263;48.716;8.760;2024-03-23T05:54:46;5.07;;;2.83;;
20207;SDS011;10263;48.716;8.760;2024-03-23T05:57:12;3.53;;;2.40;;
20207;SDS011;10263;48.716;8.760;2024-03-23T05:59:38;3.27;;;2.50;;
20207;SDS011;10263;48.716;8.760;2024-03-23T06:02:05;3.47;;;2.10;;
20207;SDS011;10263;48.716;8.760;2024-03-23T06:04:32;2.73;;;1.83;;
20207;SDS011;10263;48.716;8.760;2024-03-23T06:06:59;2.93;;;2.00;;
20207;SDS011;10263;48.716;8.760;2024-03-23T06:09:26;2.97;;;1.50;;
20207;SDS011;10263;48.716;8.760;2024-03-23T06:11:52;2.83;;;1.20;;
20207;SDS011;10263;48.716;8.760;2024-03-23T06:14:19;2.53;;;1.30;;
20207;SDS011;10263;48.716;8.760;2024-03-23T06:16:46;1.47;;;0.90;;
20207;SDS011;10263;48.716;8.760;2024-03-23T06:19:14;2.40;;;1.10;;
20207;SDS011;10263;48.716;8.760;2024-03-23T06:21:42;2.97;;;1.10;;
20207;SDS011;10263;48.716;8.760;2024-03-23T06:24:12;2.37;;;1.10;;
20207;SDS011;10263;48.716;8.760;2024-03-23T06:26:38;5.33;;;1.47;;
20207;SDS011;10263;48.716;8.760;2024-03-23T06:29:04;3.07;;;1.33;;
20207;SDS011;10263;48.716;8.760;2024-03-23T06:31:31;2.43;;;1.20;;
20207;SDS011;10263;48.716;8.760;2024-03-23T06:33:58;2.63;;;1.20;;
20207;SDS011;10263;48.716;8.760;2024-03-23T06:36:24;1.93;;;1.00;;
20207;SDS011;10263;48.716;8.760;2024-03-23T06:38:51;2.60;;;1.20;;
20207;SDS011;10263;48.716;8.760;2024-03-23T06:41:19;3.23;;;1.70;;
20207;SDS011;10263;48.716;8.760;2024-03-23T06:43:46;3.77;;;1.33;;
20207;SDS011;10263;48.716;8.760;2024-03-23T06:46:12;2.57;;;1.13;;
20207;SDS011;10263;48.716;8.760;2024-03-23T06:48:39;1.50;;;1.00;;
20207;SDS011;10263;48.716;8.760;2024-03-23T06:51:05;1.57;;;0.87;;
20207;SDS011;10263;48.716;8.760;2024-03-23T06:53:32;2.47;;;1.13;;
20207;SDS011;10263;48.716;8.760;2024-03-23T06:55:58;1.40;;;0.70;;
20207;SDS011;10263;48.716;8.760;2024-03-23T06:58:27;2.27;;;1.10;;
20207;SDS011;10263;48.716;8.760;2024-03-23T07:00:53;1.27;;;0.67;;
20207;SDS011;10263;48.716;8.760;2024-03-23T07:03:20;1.40;;;0.60;;
20207;SDS011;10263;48.716;8.760;2024-03-23T07:05:46;2.00;;;0.70;;
20207;SDS011;10263;48.716;8.760;2024-03-23T07:08:13;0.73;;;0.47;;
20207;SDS011;10263;48.716;8.760;2024-03-23T07:10:46;1.20;;;0.60;;
20207;SDS011;10263;48.716;8.760;2024-03-23T07:13:13;1.40;;;0.67;;
20207;SDS011;10263;48.716;8.760;2024-03-23T07:15:40;1.57;;;0.70;;
20207;SDS011;10263;48.716;8.760;2024-03-23T07:18:07;2.13;;;1.00;;
20207;SDS011;10263;48.716;8.760;2024-03-23T07:20:33;1.93;;;0.90;;
20207;SDS011;10263;48.716;8.760;2024-03-23T07:23:00;1.70;;;0.80;;
20207;SDS011;10263;48.716;8.760;2024-03-23T07:25:26;1.60;;;0.70;;
20207;SDS011;10263;48.716;8.760;2024-03-23T07:27:54;1.23;;;0.60;;
20207;SDS011;10263;48.716;8.760;2024-03-23T07:30:20;1.70;;;0.90;;
20207;SDS011;10263;48.716;8.760;2024-03-23T07:32:48;1.40;;;0.70;;
20207;SDS011;10263;48.716;8.760;2024-03-23T07:35:14;1.37;;;0.77;;
20207;SDS011;10263;48.716;8.760;2024-03-23T07:37:41;1.67;;;0.77;;
20207;SDS011;10263;48.716;8.760;2024-03-23T07:40:08;1.27;;;0.77;;
20207;SDS011;10263;48.716;8.760;2024-03-23T07:42:36;1.97;;;0.80;;
20207;SDS011;10263;48.716;8.760;2024-03-23T07:45:03;1.50;;;0.70;;
20207;SDS011;10263;48.716;8.760;2024-03-23T07:47:30;1.73;;;1.00;;
20207;SDS011;10263;48.716;8.760;2024-03-23T07:49:57;1.53;;;0.67;;
20207;SDS011;10263;48.716;8.760;2024-03-23T07:52:27;2.73;;;1.17;;
20207;SDS011;10263;48.716;8.760;2024-03-23T07:54:53;1.63;;;0.80;;
20207;SDS011;10263;48.716;8.760;2024-03-23T07:57:21;3.17;;;0.97;;
20207;SDS011;10263;48.716;8.760;2024-03-23T07:59:47;2.77;;;1.20;;
20207;SDS011;10263;48.716;8.760;2024-03-23T08:02:14;4.10;;;1.13;;
20207;SDS011;10263;48.716;8.760;2024-03-23T08:04:40;3.40;;;1.40;;
20207;SDS011;10263;48.716;8.760;2024-03-23T08:07:08;2.23;;;0.97;;
20207;SDS011;10263;48.716;8.760;2024-03-23T08:09:34;2.40;;;1.13;;
20207;SDS011;10263;48.716;8.760;2024-03-23T08:12:02;2.30;;;1.10;;
20207;SDS011;10263;48.716;8.760;2024-03-23T08:14:28;4.60;;;1.30;;
20207;SDS011;10263;48.716;8.760;2024-03-23T08:16:55;4.10;;;1.63;;
20207;SDS011;10263;48.716;8.760;2024-03-23T08:19:21;6.60;;;2.20;;
20207;SDS011;10263;48.716;8.760;2024-03-23T08:21:48;2.83;;;1.33;;
20207;SDS011;10263;48.716;8.760;2024-03-23T08:24:17;2.93;;;1.43;;
20207;SDS011;10263;48.716;8.760;2024-03-23T08:26:44;4.13;;;1.67;;
20207;SDS011;10263;48.716;8.760;2024-03-23T08:29:10;4.27;;;1.60;;
20207;SDS011;10263;48.716;8.760;2024-03-23T08:31:37;4.00;;;1.80;;
20207;SDS011;10263;48.716;8.760;2024-03-23T08:34:04;3.70;;;2.00;;
20207;SDS011;10263;48.716;8.760;2024-03-23T08:36:31;3.57;;;1.80;;
20207;SDS011;10263;48.716;8.760;2024-03-23T08:38:57;3.50;;;1.70;;
20207;SDS011;10263;48.716;8.760;2024-03-23T08:41:25;3.67;;;1.90;;
20207;SDS011;10263;48.716;8.760;2024-03-23T08:43:51;4.10;;;2.07;;
20207;SDS011;10263;48.716;8.760;2024-03-23T08:46:18;4.40;;;2.50;;
20207;SDS011;10263;48.716;8.760;2024-03-23T08:48:45;4.93;;;2.37;;
20207;SDS011;10263;48.716;8.760;2024-03-23T08:51:14;6.10;;;2.80;;
20207;SDS011;10263;48.716;8.760;2024-03-23T08:53:42;3.33;;;2.23;;
20207;SDS011;10263;48.716;8.760;2024-03-23T08:56:09;4.07;;;2.83;;
20207;SDS011;10263;48.716;8.760;2024-03-23T08:58:38;4.23;;;2.50;;
20207;SDS011;10263;48.716;8.760;2024-03-23T09:01:05;4.40;;;2.93;;
20207;SDS011;10263;48.716;8.760;2024-03-23T09:03:33;5.70;;;3.33;;
20207;SDS011;10263;48.716;8.760;2024-03-23T09:06:00;4.80;;;2.83;;
20207;SDS011;10263;48.716;8.760;2024-03-23T09:08:27;5.17;;;3.00;;
20207;SDS011;10263;48.716;8.760;2024-03-23T09:10:53;6.93;;;3.47;;
20207;SDS011;10263;48.716;8.760;2024-03-23T09:13:20;8.53;;;3.30;;
20207;SDS011;10263;48.716;8.760;2024-03-23T09:15:49;5.30;;;2.70;;
20207;SDS011;10263;48.716;8.760;2024-03-23T09:18:15;6.33;;;3.30;;
20207;SDS011;10263;48.716;8.760;2024-03-23T09:20:43;7.07;;;3.20;;
20207;SDS011;10263;48.716;8.760;2024-03-23T09:23:09;6.70;;;3.00;;
20207;SDS011;10263;48.716;8.760;2024-03-23T09:25:36;5.43;;;2.50;;
20207;SDS011;10263;48.716;8.760;2024-03-23T09:28:04;7.50;;;3.00;;
20207;SDS011;10263;48.716;8.760;2024-03-23T09:30:31;6.97;;;2.83;;
20207;SDS011;10263;48.716;8.760;2024-03-23T09:33:00;5.50;;;3.13;;
20207;SDS011;10263;48.716;8.760;2024-03-23T09:35:26;6.37;;;2.60;;
20207;SDS011;10263;48.716;8.760;2024-03-23T09:37:53;3.73;;;2.00;;
20207;SDS011;10263;48.716;8.760;2024-03-23T09:40:19;5.23;;;2.40;;
20207;SDS011;10263;48.716;8.760;2024-03-23T09:42:49;6.53;;;2.90;;
20207;SDS011;10263;48.716;8.760;2024-03-23T09:45:17;2.37;;;1.73;;
20207;SDS011;10263;48.716;8.760;2024-03-23T09:47:44;5.63;;;3.30;;
20207;SDS011;10263;48.716;8.760;2024-03-23T09:50:12;7.38;;;2.65;;
20207;SDS011;10263;48.716;8.760;2024-03-23T09:52:39;5.50;;;2.40;;
20207;SDS011;10263;48.716;8.760;2024-03-23T09:55:07;6.45;;;2.42;;
20207;SDS011;10263;48.716;8.760;2024-03-23T09:57:35;6.18;;;2.50;;
20207;SDS011;10263;48.716;8.760;2024-03-23T10:00:01;4.18;;;2.83;;
20207;SDS011;10263;48.716;8.760;2024-03-23T10:02:32;4.75;;;2.50;;
20207;SDS011;10263;48.716;8.760;2024-03-23T10:04:59;4.30;;;2.65;;
20207;SDS011;10263;48.716;8.760;2024-03-23T10:07:27;4.97;;;2.70;;
20207;SDS011;10263;48.716;8.760;2024-03-23T10:09:54;4.28;;;2.50;;
20207;SDS011;10263;48.716;8.760;2024-03-23T10:12:21;8.05;;;3.30;;
20207;SDS011;10263;48.716;8.760;2024-03-23T10:14:48;6.60;;;3.10;;
20207;SDS011;10263;48.716;8.760;2024-03-23T10:17:16;6.10;;;2.63;;
20207;SDS011;10263;48.716;8.760;2024-03-23T10:19:43;5.75;;;2.90;;
20207;SDS011;10263;48.716;8.760;2024-03-23T10:22:13;6.90;;;3.03;;
20207;SDS011;10263;48.716;8.760;2024-03-23T10:24:41;7.93;;;3.25;;
20207;SDS011;10263;48.716;8.760;2024-03-23T10:27:08;5.87;;;3.20;;
20207;SDS011;10263;48.716;8.760;2024-03-23T10:29:34;6.43;;;2.70;;
20207;SDS011;10263;48.716;8.760;2024-03-23T10:32:08;4.20;;;2.13;;
20207;SDS011;10263;48.716;8.760;2024-03-23T10:34:35;5.03;;;2.23;;
20207;SDS011;10263;48.716;8.760;2024-03-23T10:37:02;5.70;;;1.60;;
20207;SDS011;10263;48.716;8.760;2024-03-23T10:39:30;2.00;;;0.97;;
20207;SDS011;10263;48.716;8.760;2024-03-23T10:42:01;3.93;;;1.77;;
20207;SDS011;10263;48.716;8.760;2024-03-23T10:44:28;6.43;;;2.17;;
20207;SDS011;10263;48.716;8.760;2024-03-23T10:46:56;5.10;;;1.77;;
20207;SDS011;10263;48.716;8.760;2024-03-23T10:49:25;5.43;;;1.83;;
20207;SDS011;10263;48.716;8.760;2024-03-23T10:51:54;4.00;;;1.90;;
20207;SDS011;10263;48.716;8.760;2024-03-23T10:54:20;4.77;;;2.00;;
20207;SDS011;10263;48.716;8.760;2024-03-23T10:56:48;3.37;;;1.73;;
20207;SDS011;10263;48.716;8.760;2024-03-23T10:59:20;5.00;;;1.40;;
20207;SDS011;10263;48.716;8.760;2024-03-23T11:01:54;4.37;;;1.70;;
20207;SDS011;10263;48.716;8.760;2024-03-23T11:04:30;3.47;;;1.53;;
20207;SDS011;10263;48.716;8.760;2024-03-23T11:06:57;4.73;;;1.97;;
20207;SDS011;10263;48.716;8.760;2024-03-23T11:09:39;4.27;;;1.80;;
20207;SDS011;10263;48.716;8.760;2024-03-23T11:12:25;3.33;;;1.37;;
20207;SDS011;10263;48.716;8.760;2024-03-23T11:14:52;3.70;;;1.67;;
20207;SDS011;10263;48.716;8.760;2024-03-23T11:17:21;2.43;;;1.30;;
20207;SDS011;10263;48.716;8.760;2024-03-23T11:19:52;4.67;;;1.67;;
20207;SDS011;10263;48.716;8.760;2024-03-23T11:25:20;10.40;;;3.53;;
20207;SDS011;10263;48.716;8.760;2024-03-23T11:27:49;13.30;;;4.03;;
20207;SDS011;10263;48.716;8.760;2024-03-23T11:30:18;21.30;;;6.27;;
20207;SDS011;10263;48.716;8.760;2024-03-23T11:32:47;15.13;;;4.70;;
20207;SDS011;10263;48.716;8.760;2024-03-23T11:35:26;16.00;;;4.53;;
20207;SDS011;10263;48.716;8.760;2024-03-23T11:38:04;27.63;;;8.00;;
20207;SDS011;10263;48.716;8.760;2024-03-23T11:40:30;20.13;;;5.80;;
20207;SDS011;10263;48.716;8.760;2024-03-23T11:42:58;24.37;;;7.47;;
20207;SDS011;10263;48.716;8.760;2024-03-23T11:45:26;19.43;;;5.67;;
20207;SDS011;10263;48.716;8.760;2024-03-23T11:48:04;17.30;;;5.40;;
20207;SDS011;10263;48.716;8.760;2024-03-23T11:50:30;18.50;;;5.60;;
20207;SDS011;10263;48.716;8.760;2024-03-23T11:53:14;23.80;;;7.10;;
20207;SDS011;10263;48.716;8.760;2024-03-23T11:55:44;15.20;;;4.67;;
20207;SDS011;10263;48.716;8.760;2024-03-23T11:58:12;16.87;;;4.67;;
20207;SDS011;10263;48.716;8.760;2024-03-23T12:00:40;22.97;;;6.27;;
20207;SDS011;10263;48.716;8.760;2024-03-23T12:03:07;19.43;;;6.30;;
20207;SDS011;10263;48.716;8.760;2024-03-23T12:05:35;13.77;;;4.03;;
20207;SDS011;10263;48.716;8.760;2024-03-23T12:08:18;26.07;;;8.77;;
20207;SDS011;10263;48.716;8.760;2024-03-23T12:10:46;16.90;;;5.17;;
20207;SDS011;10263;48.716;8.760;2024-03-23T12:13:15;11.57;;;3.77;;
20207;SDS011;10263;48.716;8.760;2024-03-23T12:15:43;19.80;;;5.45;;
20207;SDS011;10263;48.716;8.760;2024-03-23T12:18:11;19.05;;;6.38;;
20207;SDS011;10263;48.716;8.760;2024-03-23T12:20:37;16.50;;;5.03;;
20207;SDS011;10263;48.716;8.760;2024-03-23T12:23:05;23.50;;;7.63;;
20207;SDS011;10263;48.716;8.760;2024-03-23T12:25:31;12.27;;;3.75;;
20207;SDS011;10263;48.716;8.760;2024-03-23T12:27:59;24.38;;;7.75;;
20207;SDS011;10263;48.716;8.760;2024-03-23T12:30:25;27.97;;;8.37;;
20207;SDS011;10263;48.716;8.760;2024-03-23T12:32:53;16.90;;;5.57;;
20207;SDS011;10263;48.716;8.760;2024-03-23T12:35:20;20.40;;;6.53;;
20207;SDS011;10263;48.716;8.760;2024-03-23T12:37:47;17.50;;;6.23;;
20207;SDS011;10263;48.716;8.760;2024-03-23T12:40:14;14.70;;;5.20;;
20207;SDS011;10263;48.716;8.760;2024-03-23T12:42:41;22.07;;;6.37;;
20207;SDS011;10263;48.716;8.760;2024-03-23T12:45:07;21.20;;;6.25;;
20207;SDS011;10263;48.716;8.760;2024-03-23T12:47:34;16.53;;;5.13;;
20207;SDS011;10263;48.716;8.760;2024-03-23T12:50:02;28.00;;;7.93;;
20207;SDS011;10263;48.716;8.760;2024-03-23T12:52:31;13.63;;;4.10;;
20207;SDS011;10263;48.716;8.760;2024-03-23T12:54:57;21.33;;;6.10;;
20207;SDS011;10263;48.716;8.760;2024-03-23T12:57:24;89.47;;;24.87;;
20207;SDS011;10263;48.716;8.760;2024-03-23T12:59:50;13.07;;;3.93;;
20207;SDS011;10263;48.716;8.760;2024-03-23T13:02:18;27.87;;;6.93;;
20207;SDS011;10263;48.716;8.760;2024-03-23T13:07:29;11.40;;;3.40;;
20207;SDS011;10263;48.716;8.760;2024-03-23T13:09:55;16.23;;;4.37;;
20207;SDS011;10263;48.716;8.760;2024-03-23T13:12:22;17.73;;;5.20;;
20207;SDS011;10263;48.716;8.760;2024-03-23T13:14:48;31.00;;;9.83;;
20207;SDS011;10263;48.716;8.760;2024-03-23T13:17:16;10.83;;;4.00;;
20207;SDS011;10263;48.716;8.760;2024-03-23T13:19:42;13.37;;;3.70;;
20207;SDS011;10263;48.716;8.760;2024-03-23T13:22:09;16.80;;;6.47;;
20207;SDS011;10263;48.716;8.760;2024-03-23T13:24:38;9.20;;;3.67;;
20207;SDS011;10263;48.716;8.760;2024-03-23T13:27:05;14.50;;;5.80;;
20207;SDS011;10263;48.716;8.760;2024-03-23T13:29:33;9.73;;;3.73;;
20207;SDS011;10263;48.716;8.760;2024-03-23T13:32:00;15.02;;;5.97;;
20207;SDS011;10263;48.716;8.760;2024-03-23T13:34:27;9.93;;;3.95;;
20207;SDS011;10263;48.716;8.760;2024-03-23T13:36:54;8.38;;;2.83;;
20207;SDS011;10263;48.716;8.760;2024-03-23T13:39:23;11.57;;;3.88;;
20207;SDS011;10263;48.716;8.760;2024-03-23T13:41:51;12.47;;;4.10;;
20207;SDS011;10263;48.716;8.760;2024-03-23T13:44:18;17.97;;;6.03;;
20207;SDS011;10263;48.716;8.760;2024-03-23T13:46:45;7.33;;;2.77;;
20207;SDS011;10263;48.716;8.760;2024-03-23T13:49:14;22.67;;;6.47;;
20207;SDS011;10263;48.716;8.760;2024-03-23T13:51:46;16.33;;;4.37;;
20207;SDS011;10263;48.716;8.760;2024-03-23T13:54:12;22.23;;;5.43;;
20207;SDS011;10263;48.716;8.760;2024-03-23T13:56:39;12.10;;;4.40;;
20207;SDS011;10263;48.716;8.760;2024-03-23T13:59:06;13.70;;;5.33;;
20207;SDS011;10263;48.716;8.760;2024-03-23T14:01:33;9.75;;;4.03;;
20207;SDS011;10263;48.716;8.760;2024-03-23T14:03:59;9.20;;;3.35;;
20207;SDS011;10263;48.716;8.760;2024-03-23T14:06:26;15.20;;;5.13;;
20207;SDS011;10263;48.716;8.760;2024-03-23T14:08:52;11.03;;;3.63;;
20207;SDS011;10263;48.716;8.760;2024-03-23T14:11:19;9.57;;;3.13;;
20207;SDS011;10263;48.716;8.760;2024-03-23T14:13:45;10.57;;;3.00;;
20207;SDS011;10263;48.716;8.760;2024-03-23T14:16:14;14.00;;;5.07;;
20207;SDS011;10263;48.716;8.760;2024-03-23T14:18:41;7.53;;;2.60;;
20207;SDS011;10263;48.716;8.760;2024-03-23T14:21:07;12.45;;;5.10;;
20207;SDS011;10263;48.716;8.760;2024-03-23T14:23:35;8.45;;;3.15;;
20207;SDS011;10263;48.716;8.760;2024-03-23T14:26:02;9.35;;;4.00;;
20207;SDS011;10263;48.716;8.760;2024-03-23T14:28:29;7.93;;;2.70;;
20207;SDS011;10263;48.716;8.760;2024-03-23T14:30:55;7.35;;;2.63;;
20207;SDS011;10263;48.716;8.760;2024-03-23T14:33:24;8.65;;;3.25;;
20207;SDS011;10263;48.716;8.760;2024-03-23T14:35:53;7.97;;;2.97;;
20207;SDS011;10263;48.716;8.760;2024-03-23T14:38:20;8.98;;;3.13;;
20207;SDS011;10263;48.716;8.760;2024-03-23T14:40:47;9.63;;;2.63;;
20207;SDS011;10263;48.716;8.760;2024-03-23T14:43:14;16.47;;;4.60;;
20207;SDS011;10263;48.716;8.760;2024-03-23T14:45:45;18.87;;;4.53;;
20207;SDS011;10263;48.716;8.760;2024-03-23T14:48:15;26.40;;;6.60;;
20207;SDS011;10263;48.716;8.760;2024-03-23T14:50:43;19.73;;;5.03;;
20207;SDS011;10263;48.716;8.760;2024-03-23T14:53:11;13.30;;;4.97;;
20207;SDS011;10263;48.716;8.760;2024-03-23T14:55:39;6.53;;;2.80;;
20207;SDS011;10263;48.716;8.760;2024-03-23T14:58:12;12.97;;;5.43;;
20207;SDS011;10263;48.716;8.760;2024-03-23T15:00:38;6.63;;;2.85;;
20207;SDS011;10263;48.716;8.760;2024-03-23T15:03:06;10.68;;;5.05;;
20207;SDS011;10263;48.716;8.760;2024-03-23T15:05:31;8.05;;;2.90;;
20207;SDS011;10263;48.716;8.760;2024-03-23T15:08:00;9.75;;;4.10;;
20207;SDS011;10263;48.716;8.760;2024-03-23T15:10:27;6.97;;;3.45;;
20207;SDS011;10263;48.716;8.760;2024-03-23T15:12:55;5.55;;;2.63;;
20207;SDS011;10263;48.716;8.760;2024-03-23T15:15:21;6.05;;;2.90;;
20207;SDS011;10263;48.716;8.760;2024-03-23T15:17:48;7.78;;;2.90;;
20207;SDS011;10263;48.716;8.760;2024-03-23T15:20:15;13.40;;;6.68;;
20207;SDS011;10263;48.716;8.760;2024-03-23T15:22:43;11.20;;;4.30;;
20207;SDS011;10263;48.716;8.760;2024-03-23T15:25:10;11.93;;;4.80;;
20207;SDS011;10263;48.716;8.760;2024-03-23T15:27:37;7.95;;;3.15;;
20207;SDS011;10263;48.716;8.760;2024-03-23T15:30:04;14.17;;;4.57;;
20207;SDS011;10263;48.716;8.760;2024-03-23T15:32:32;10.87;;;3.10;;
20207;SDS011;10263;48.716;8.760;2024-03-23T15:34:58;10.20;;;3.37;;
20207;SDS011;10263;48.716;8.760;2024-03-23T15:37:25;12.83;;;4.23;;
20207;SDS011;10263;48.716;8.760;2024-03-23T15:39:51;19.30;;;6.40;;
20207;SDS011;10263;48.716;8.760;2024-03-23T15:42:20;20.97;;;5.60;;